createdAt,value
2023-03-21T00:01:53.909Z,158587.22
2023-03-21T00:04:23.767Z,158571.19
2023-03-21T00:06:52.047Z,158581.88
2023-03-21T00:09:20.244Z,158583.19
2023-03-21T00:11:48.634Z,158581.88
2023-03-21T00:14:19.091Z,158561.88
2023-03-21T00:16:52.192Z,158567.22
2023-03-21T00:19:21.934Z,158565.91
2023-03-21T00:22:06.601Z,158565.91
2023-03-21T00:24:36.218Z,158571.19
2023-03-21T00:29:53.137Z,158564.59
2023-03-21T00:32:21.974Z,158569.88
2023-03-21T00:35:40.769Z,158581.88
2023-03-21T00:37:38.986Z,158563.22
2023-03-21T00:40:16.297Z,158563.22
2023-03-21T00:42:52.116Z,158556.53
2023-03-21T00:45:22.457Z,158575.22
2023-03-21T00:47:50.791Z,158552.59
2023-03-21T00:50:18.888Z,158539.25
2023-03-21T00:52:46.895Z,158536.63
2023-03-21T00:55:17.150Z,158543.22
2023-03-21T00:57:50.099Z,158539.25
2023-03-21T01:00:25.434Z,158531.28
2023-03-21T01:03:17.577Z,158519.28
2023-03-21T01:06:09.934Z,158509.97
2023-03-21T01:08:51.860Z,158509.97
2023-03-21T01:11:23.191Z,158505.94
2023-03-21T01:13:59.657Z,158471.31
2023-03-21T01:16:32.659Z,158491.31
2023-03-21T01:19:02.150Z,158482.00
2023-03-21T01:21:33.498Z,158480.69
2023-03-21T01:24:02.440Z,158474.03
2023-03-21T01:26:30.151Z,158483.31
2023-03-21T01:28:58.478Z,158482.00
2023-03-21T01:31:26.394Z,158480.69
2023-03-21T01:33:54.323Z,158474.03
2023-03-21T01:36:25.378Z,158475.34
2023-03-21T01:38:57.841Z,158459.38
2023-03-21T01:41:47.489Z,158447.38
2023-03-21T01:44:25.052Z,158458.00
2023-03-21T01:47:10.552Z,158462.03
2023-03-21T01:50:02.849Z,158460.69
2023-03-21T01:52:42.170Z,158447.38
2023-03-21T01:55:28.791Z,158443.38
2023-03-21T01:58:18.425Z,158451.34
2023-03-21T02:01:10.463Z,158452.72
2023-03-21T02:03:53.094Z,158436.72
2023-03-21T02:06:53.956Z,158416.72
2023-03-21T02:09:40.441Z,158438.06
2023-03-21T02:12:16.567Z,158447.38
2023-03-21T02:14:48.675Z,158432.75
2023-03-21T02:18:05.627Z,158454.03
2023-03-21T02:21:03.102Z,158459.38
2023-03-21T02:23:51.956Z,158443.38
2023-03-21T02:26:40.899Z,158432.75
2023-03-21T02:29:31.022Z,158436.72
2023-03-21T02:32:36.656Z,158431.41
2023-03-21T02:35:15.375Z,158424.75
2023-03-21T02:37:52.023Z,158427.41
2023-03-21T02:40:28.817Z,158438.06
2023-03-21T02:43:09.338Z,158416.72
2023-03-21T02:45:57.517Z,158427.41
2023-03-21T02:48:44.400Z,158414.09
2023-03-21T02:51:21.437Z,158406.09
2023-03-21T02:54:23.710Z,158404.78
2023-03-21T02:56:46.040Z,158395.44
2023-03-21T02:59:16.957Z,158407.44
2023-03-21T03:01:46.482Z,158398.13
2023-03-21T03:04:22.952Z,158387.44
2023-03-21T03:07:18.521Z,158387.44
2023-03-21T03:10:17.342Z,158387.44
2023-03-21T03:12:52.399Z,158383.50
2023-03-21T03:15:24.548Z,158382.16
2023-03-21T03:18:20.010Z,158366.16
2023-03-21T03:21:11.208Z,158380.78
2023-03-21T03:23:58.655Z,158384.81
2023-03-21T03:26:34.410Z,158396.81
2023-03-21T03:29:13.977Z,158368.84
2023-03-21T03:31:49.457Z,158390.16
2023-03-21T03:34:21.172Z,158392.78
2023-03-21T03:36:56.577Z,158387.44
2023-03-21T03:39:36.260Z,158380.78
2023-03-21T03:42:25.499Z,158375.50
2023-03-21T03:45:01.177Z,158370.16
2023-03-21T03:47:39.884Z,158366.16
2023-03-21T03:50:13.974Z,158370.16
2023-03-21T03:52:55.840Z,158375.50
2023-03-21T03:55:28.334Z,158355.53
2023-03-21T03:58:06.429Z,158364.84
2023-03-21T04:00:39.329Z,158348.88
2023-03-21T04:03:07.595Z,158351.50
2023-03-21T04:05:35.486Z,158362.19
2023-03-21T04:08:03.907Z,158348.88
2023-03-21T04:10:39.126Z,158355.53
2023-03-21T04:13:06.998Z,158354.22
2023-03-21T04:15:54.053Z,158358.19
2023-03-21T04:18:23.627Z,158342.22
2023-03-21T04:20:51.703Z,158372.81
2023-03-21T04:23:20.390Z,158379.47
2023-03-21T04:25:56.602Z,158359.50
2023-03-21T04:28:38.732Z,158371.50
2023-03-21T04:31:31.595Z,158358.19
2023-03-21T04:34:12.991Z,158355.53
2023-03-21T04:36:51.227Z,158356.84
2023-03-21T04:39:19.258Z,158344.84
2023-03-21T04:41:50.732Z,158334.25
2023-03-21T04:44:18.648Z,158343.53
2023-03-21T04:46:48.229Z,158343.53
2023-03-21T04:49:16.126Z,158344.84
2023-03-21T04:51:45.631Z,158344.84
2023-03-21T04:54:18.184Z,158354.22
2023-03-21T04:56:46.338Z,158355.53
2023-03-21T04:59:16.984Z,158356.84
2023-03-21T05:01:46.102Z,158350.19
2023-03-21T05:04:15.027Z,158360.88
2023-03-21T05:06:44.561Z,158368.84
2023-03-21T05:09:13.440Z,158362.19
2023-03-21T05:11:41.982Z,158355.53
2023-03-21T05:14:16.188Z,158362.19
2023-03-21T05:16:49.090Z,158362.19
2023-03-21T05:19:19.420Z,158359.50
2023-03-21T05:21:50.162Z,158364.84
2023-03-21T05:24:22.773Z,158368.84
2023-03-21T05:26:52.761Z,158375.50
2023-03-21T05:29:26.033Z,158378.16
2023-03-21T05:32:00.937Z,158364.84
2023-03-21T05:34:30.236Z,158378.16
2023-03-21T05:36:59.608Z,158376.81
2023-03-21T05:39:37.121Z,158364.84
2023-03-21T05:42:12.226Z,158350.19
2023-03-21T05:44:41.121Z,158367.47
2023-03-21T05:47:13.497Z,158359.50
2023-03-21T05:49:45.719Z,158372.81
2023-03-21T05:52:14.640Z,158376.81
2023-03-21T05:54:42.585Z,158379.47
2023-03-21T05:57:11.292Z,158386.13
2023-03-21T05:59:51.596Z,158384.81
2023-03-21T06:02:21.954Z,158394.13
2023-03-21T06:04:51.563Z,158370.16
2023-03-21T06:07:22.324Z,158360.88
2023-03-21T06:09:51.649Z,158360.88
2023-03-21T06:12:20.462Z,158362.19
2023-03-21T06:15:01.761Z,158342.22
2023-03-21T06:17:48.812Z,158352.84
2023-03-21T06:20:17.962Z,158366.16
2023-03-21T06:22:51.567Z,158364.84
2023-03-21T06:25:20.356Z,158367.47
2023-03-21T06:27:49.053Z,158362.19
2023-03-21T06:30:18.993Z,158356.84
2023-03-21T06:33:01.069Z,158360.88
2023-03-21T06:35:29.013Z,158384.81
2023-03-21T06:37:59.442Z,158368.84
2023-03-21T06:40:32.158Z,158368.84
2023-03-21T06:43:00.260Z,158367.47
2023-03-21T06:45:28.464Z,158374.13
2023-03-21T06:47:58.148Z,158379.47
2023-03-21T06:50:35.921Z,158375.50
2023-03-21T06:53:04.880Z,158387.44
2023-03-21T06:55:37.391Z,158391.47
2023-03-21T06:58:06.303Z,158404.78
2023-03-21T07:00:34.317Z,158392.78
2023-03-21T07:03:03.215Z,158379.47
2023-03-21T07:05:37.429Z,158396.81
2023-03-21T07:08:10.606Z,158410.13
2023-03-21T07:10:45.355Z,158406.09
2023-03-21T07:13:15.071Z,158438.06
2023-03-21T07:15:46.962Z,158450.03
2023-03-21T07:18:15.442Z,158454.03
2023-03-21T07:20:48.925Z,158472.66
2023-03-21T07:23:21.979Z,158485.97
2023-03-21T07:25:51.216Z,158492.63
2023-03-21T07:28:19.845Z,158507.28
2023-03-21T07:30:55.803Z,158537.94
2023-03-21T07:33:25.401Z,158540.59
2023-03-21T07:35:58.067Z,158564.59
2023-03-21T07:38:27.009Z,158579.22
2023-03-21T07:40:54.525Z,158587.22
2023-03-21T07:43:23.852Z,158580.56
2023-03-21T07:45:57.489Z,158592.50
2023-03-21T07:48:27.968Z,158605.81
2023-03-21T07:50:55.913Z,158628.50
2023-03-21T07:53:23.817Z,158627.13
2023-03-21T07:55:54.169Z,158643.16
2023-03-21T07:58:22.077Z,158632.47
2023-03-21T08:00:49.902Z,158603.19
2023-03-21T08:03:18.359Z,158603.19
2023-03-21T08:05:47.927Z,158568.56
2023-03-21T08:08:17.205Z,158588.53
2023-03-21T08:10:46.311Z,158605.81
2023-03-21T08:13:15.068Z,158632.47
2023-03-21T08:15:43.699Z,158637.81
2023-03-21T08:18:12.872Z,158643.16
2023-03-21T08:20:42.496Z,158645.81
2023-03-21T08:23:10.900Z,158677.81
2023-03-21T08:25:40.499Z,158736.41
2023-03-21T08:28:08.935Z,158759.03
2023-03-21T08:30:38.263Z,158776.41
2023-03-21T08:33:08.415Z,158793.75
2023-03-21T08:35:39.619Z,158793.75
2023-03-21T08:38:09.661Z,158817.75
2023-03-21T08:40:37.856Z,158772.38
2023-03-21T08:43:06.288Z,158771.06
2023-03-21T08:45:34.325Z,158767.03
2023-03-21T08:48:02.725Z,158791.09
2023-03-21T08:50:32.098Z,158775.03
2023-03-21T08:53:00.741Z,158783.13
2023-03-21T08:55:28.667Z,158796.38
2023-03-21T08:57:57.427Z,158781.75
2023-03-21T09:00:26.085Z,158771.06
2023-03-21T09:02:54.805Z,158768.34
2023-03-21T09:05:23.127Z,158772.38
2023-03-21T09:07:53.070Z,158761.75
2023-03-21T09:10:23.321Z,158779.03
2023-03-21T09:12:53.316Z,158785.75
2023-03-21T09:15:26.816Z,158785.75
2023-03-21T09:17:58.645Z,158791.09
2023-03-21T09:20:31.565Z,158775.03
2023-03-21T09:23:00.001Z,158784.44
2023-03-21T09:25:31.841Z,158803.06
2023-03-21T09:28:01.226Z,158800.41
2023-03-21T09:30:31.707Z,158811.09
2023-03-21T09:33:01.564Z,158772.38
2023-03-21T09:35:30.131Z,158784.44
2023-03-21T09:37:59.646Z,158720.44
2023-03-21T09:40:46.148Z,158688.44
2023-03-21T09:43:20.938Z,158683.09
2023-03-21T09:46:00.189Z,158688.44
2023-03-21T09:48:47.004Z,158677.81
2023-03-21T09:51:22.613Z,158708.41
2023-03-21T09:53:52.661Z,158699.13
2023-03-21T09:56:21.490Z,158712.44
2023-03-21T09:58:54.950Z,158733.75
2023-03-21T10:01:33.379Z,158740.41
2023-03-21T10:04:07.645Z,158752.38
2023-03-21T10:06:39.733Z,158777.72
2023-03-21T10:09:15.347Z,158779.03
2023-03-21T10:11:48.874Z,158788.41
2023-03-21T10:14:21.059Z,158792.41
2023-03-21T10:17:05.094Z,158784.44
2023-03-21T10:19:33.340Z,158777.72
2023-03-21T10:22:03.109Z,158797.75
2023-03-21T10:24:34.661Z,158821.72
2023-03-21T10:27:04.034Z,158840.41
2023-03-21T10:29:43.519Z,158813.75
2023-03-21T10:32:14.493Z,158828.41
2023-03-21T10:34:44.574Z,158832.41
2023-03-21T10:37:14.498Z,158851.03
2023-03-21T10:39:47.020Z,158873.69
2023-03-21T10:42:26.407Z,158872.38
2023-03-21T10:44:57.875Z,158861.75
2023-03-21T10:47:32.133Z,158891.06
2023-03-21T10:50:14.035Z,158915.03
2023-03-21T10:53:00.629Z,158929.69
2023-03-21T10:55:34.331Z,158940.38
2023-03-21T10:58:08.746Z,158959.06
2023-03-21T11:00:43.678Z,158975.03
2023-03-21T11:03:37.024Z,159027.03
2023-03-21T11:06:16.469Z,159056.34
2023-03-21T11:09:15.209Z,159099.03
2023-03-21T11:12:13.796Z,159109.72
2023-03-21T11:14:47.522Z,159144.41
2023-03-21T11:17:18.447Z,159145.72
2023-03-21T11:19:50.715Z,159128.41
2023-03-21T11:22:23.595Z,159120.41
2023-03-21T11:24:55.075Z,159133.72
2023-03-21T11:27:25.497Z,159124.38
2023-03-21T11:29:53.232Z,159137.72
2023-03-21T11:32:34.498Z,159115.06
2023-03-21T11:35:02.714Z,159123.06
2023-03-21T11:37:51.447Z,159091.03
2023-03-21T11:40:28.121Z,159088.38
2023-03-21T11:43:00.850Z,159043.06
2023-03-21T11:45:34.484Z,159017.72
2023-03-21T11:48:09.028Z,158989.69
2023-03-21T11:50:40.643Z,158968.38
2023-03-21T11:53:36.972Z,158960.38
2023-03-21T11:56:11.453Z,158956.34
2023-03-21T11:58:59.211Z,158948.38
2023-03-21T12:01:27.706Z,158940.38
2023-03-21T12:04:41.722Z,158933.72
2023-03-21T12:07:34.621Z,158948.38
2023-03-21T12:10:35.082Z,158940.38
2023-03-21T12:13:05.850Z,158972.34
2023-03-21T12:15:40.717Z,158981.72
2023-03-21T12:18:14.639Z,159009.72
2023-03-21T12:21:26.015Z,159056.34
2023-03-21T12:24:03.124Z,159089.72
2023-03-21T12:26:50.495Z,159104.38
2023-03-21T12:29:41.140Z,159133.72
2023-03-21T12:32:44.140Z,159173.75
2023-03-21T12:35:39.418Z,159221.78
2023-03-21T12:38:17.325Z,159204.41
2023-03-21T12:41:03.843Z,159171.09
2023-03-21T12:43:43.160Z,159139.06
2023-03-21T12:46:42.383Z,159117.72
2023-03-21T12:49:17.997Z,159016.38
2023-03-21T12:51:49.191Z,159041.69
2023-03-21T12:54:31.975Z,158997.69
2023-03-21T12:57:06.168Z,158979.00
2023-03-21T12:59:38.882Z,158947.03
2023-03-21T13:02:27.624Z,158933.72
2023-03-21T13:05:17.673Z,158940.38
2023-03-21T13:07:55.322Z,158973.72
2023-03-21T13:10:24.792Z,158969.69
2023-03-21T13:13:10.188Z,158993.72
2023-03-21T13:15:48.658Z,159019.03
2023-03-21T13:18:17.031Z,159044.38
2023-03-21T13:21:01.180Z,159033.69
2023-03-21T13:23:37.813Z,159037.72
2023-03-21T13:26:11.720Z,159063.03
2023-03-21T13:28:41.420Z,159095.06
2023-03-21T13:31:16.329Z,159152.41
2023-03-21T13:33:48.470Z,159156.44
2023-03-21T13:36:29.171Z,159156.44
2023-03-21T13:39:06.597Z,159173.75
2023-03-21T13:41:39.326Z,159189.75
2023-03-21T13:44:19.595Z,159177.78
2023-03-21T13:47:20.885Z,159163.09
2023-03-21T13:50:24.804Z,159173.75
2023-03-21T13:53:11.526Z,159176.41
2023-03-21T13:55:46.063Z,159167.06
2023-03-21T13:58:34.640Z,159173.75
2023-03-21T14:01:28.077Z,159201.75
2023-03-21T14:04:01.384Z,159239.09
2023-03-21T14:06:36.325Z,159201.75
2023-03-21T14:09:05.444Z,159181.75
2023-03-21T14:11:34.866Z,159165.75
2023-03-21T14:14:11.026Z,159145.72
2023-03-21T14:16:39.393Z,159149.75
2023-03-21T14:19:07.983Z,159165.75
2023-03-21T14:21:36.745Z,159135.09
2023-03-21T14:24:23.121Z,159153.72
2023-03-21T14:26:54.095Z,159128.41
2023-03-21T14:29:34.089Z,159172.41
2023-03-21T14:32:04.187Z,159185.75
2023-03-21T14:34:35.626Z,159208.44
2023-03-21T14:37:08.105Z,159257.81
2023-03-21T14:39:36.399Z,159253.78
2023-03-21T14:42:12.576Z,159256.47
2023-03-21T14:44:58.349Z,159251.13
2023-03-21T14:47:29.551Z,159240.47
2023-03-21T14:49:58.412Z,159212.47
2023-03-21T14:52:33.251Z,159212.47
2023-03-21T14:55:02.406Z,159203.09
2023-03-21T14:57:32.337Z,159177.78
2023-03-21T15:00:02.637Z,159124.38
2023-03-21T15:02:37.287Z,159109.72
2023-03-21T15:05:31.877Z,159085.75
2023-03-21T15:08:19.051Z,159083.03
2023-03-21T15:11:08.279Z,159084.38
2023-03-21T15:13:45.804Z,159072.41
2023-03-21T15:16:15.580Z,159071.06
2023-03-21T15:18:45.103Z,159073.72
2023-03-21T15:21:17.693Z,159084.38
2023-03-21T15:23:53.465Z,159081.72
2023-03-21T15:26:25.608Z,159069.69
2023-03-21T15:28:59.376Z,159104.38
2023-03-21T15:31:36.071Z,159091.03
2023-03-21T15:34:04.998Z,159103.06
2023-03-21T15:36:44.338Z,159103.06
2023-03-21T15:39:18.697Z,159108.41
2023-03-21T15:42:08.071Z,159113.75
2023-03-21T15:44:36.847Z,159117.72
2023-03-21T15:47:05.542Z,159127.03
2023-03-21T15:49:35.152Z,159133.72
2023-03-21T15:52:14.858Z,159129.75
2023-03-21T15:54:50.421Z,159143.09
2023-03-21T15:57:29.959Z,159152.41
2023-03-21T16:00:13.604Z,159157.75
2023-03-21T16:02:42.714Z,159140.38
2023-03-21T16:05:33.318Z,159136.41
2023-03-21T16:08:32.235Z,159133.72
2023-03-21T16:11:12.561Z,159103.06
2023-03-21T16:13:41.102Z,159097.69
2023-03-21T16:16:27.449Z,159097.69
2023-03-21T16:18:57.120Z,159076.38
2023-03-21T16:21:28.718Z,159072.41
2023-03-21T16:23:58.415Z,159069.69
2023-03-21T16:26:37.115Z,159051.06
2023-03-21T16:29:06.239Z,159040.38
2023-03-21T16:31:37.408Z,159003.03
2023-03-21T16:34:05.557Z,158959.06
2023-03-21T16:36:39.051Z,158975.03
2023-03-21T16:39:21.895Z,158960.38
2023-03-21T16:41:52.067Z,158939.06
2023-03-21T16:44:20.797Z,158929.69
2023-03-21T16:46:50.336Z,158903.06
2023-03-21T16:49:23.918Z,158881.72
2023-03-21T16:51:54.091Z,158859.03
2023-03-21T16:54:23.115Z,158844.38
2023-03-21T16:56:55.855Z,158821.72
2023-03-21T16:59:24.260Z,158799.09
2023-03-21T17:01:52.582Z,158768.34
2023-03-21T17:04:20.583Z,158725.72
2023-03-21T17:06:51.367Z,158711.06
2023-03-21T17:09:22.165Z,158671.13
2023-03-21T17:11:50.624Z,158631.16
2023-03-21T17:14:19.185Z,158605.81
2023-03-21T17:16:47.724Z,158560.56
2023-03-21T17:19:24.168Z,158492.63
2023-03-21T17:21:52.713Z,158451.34
2023-03-21T17:24:20.568Z,158432.75
2023-03-21T17:26:48.664Z,158407.44
2023-03-21T17:29:16.802Z,158344.84
2023-03-21T17:31:47.616Z,158316.91
2023-03-21T17:34:16.122Z,158295.63
2023-03-21T17:36:46.689Z,158267.66
2023-03-21T17:39:21.451Z,158235.75
2023-03-21T17:41:51.091Z,158198.47
2023-03-21T17:44:20.479Z,158154.59
2023-03-21T17:46:52.386Z,158129.28
2023-03-21T17:49:21.462Z,158089.38
2023-03-21T17:51:50.792Z,158081.38
2023-03-21T17:54:19.028Z,158041.47
2023-03-21T17:56:47.478Z,158018.88
2023-03-21T17:59:15.669Z,158004.25
2023-03-21T18:01:43.523Z,157980.28
2023-03-21T18:04:11.290Z,157953.75
2023-03-21T18:06:39.750Z,157915.16
2023-03-21T18:09:11.926Z,157907.19
2023-03-21T18:11:41.538Z,157887.25
2023-03-21T18:14:17.537Z,157865.97
2023-03-21T18:16:48.279Z,157842.06
2023-03-21T18:19:16.879Z,157794.22
2023-03-21T18:21:46.028Z,157779.59
2023-03-21T18:24:15.073Z,157766.31
2023-03-21T18:26:44.504Z,157763.63
2023-03-21T18:32:08.255Z,157706.50
2023-03-21T18:34:39.090Z,157693.22
2023-03-21T18:37:09.064Z,157662.66
2023-03-21T18:39:38.252Z,157671.94
2023-03-21T18:42:07.529Z,157656.03
2023-03-21T18:44:45.510Z,157666.69
2023-03-21T18:47:14.890Z,157685.25
2023-03-21T18:50:13.126Z,157671.94
2023-03-21T18:52:32.726Z,157578.97
2023-03-21T18:55:00.858Z,157556.41
2023-03-21T18:57:37.018Z,157564.38
2023-03-21T19:00:14.196Z,157565.69
2023-03-21T19:02:47.727Z,157593.59
2023-03-21T19:05:17.912Z,157616.16
2023-03-21T19:07:47.174Z,157634.78
2023-03-21T19:10:18.939Z,157625.50
2023-03-21T19:12:52.226Z,157604.25
2023-03-21T19:15:22.191Z,157576.34
2023-03-21T19:20:45.324Z,157567.03
2023-03-21T19:23:13.952Z,157577.66
2023-03-21T19:25:43.297Z,157585.63
2023-03-21T19:28:11.923Z,157577.66
2023-03-21T19:30:40.182Z,157594.91
2023-03-21T19:33:09.437Z,157597.59
2023-03-21T19:35:40.926Z,157602.94
2023-03-21T19:38:12.330Z,157605.56
2023-03-21T19:40:42.008Z,157602.94
2023-03-21T19:43:31.121Z,157625.50
2023-03-21T19:46:01.153Z,157628.13
2023-03-21T19:48:29.954Z,157621.47
2023-03-21T19:51:26.267Z,157632.13
2023-03-21T19:53:46.609Z,157620.16
2023-03-21T19:56:22.433Z,157613.53
2023-03-21T19:58:52.586Z,157613.53
2023-03-21T20:01:21.429Z,157621.47
2023-03-21T20:03:50.131Z,157637.41
2023-03-21T20:06:18.785Z,157638.78
2023-03-21T20:09:27.330Z,157618.84
2023-03-21T20:11:36.216Z,157624.16
2023-03-21T20:14:05.533Z,157625.50
2023-03-21T20:16:35.672Z,157644.06
2023-03-21T20:19:06.482Z,157640.09
2023-03-21T20:21:44.415Z,157638.78
2023-03-21T20:24:17.137Z,157660.03
2023-03-21T20:26:46.237Z,157677.28
2023-03-21T20:32:03.472Z,157638.78
2023-03-21T20:34:33.795Z,157654.72
2023-03-21T20:37:04.056Z,157675.97
2023-03-21T20:39:34.278Z,157694.56
2023-03-21T20:42:02.562Z,157717.16
2023-03-21T20:47:19.602Z,157741.03
2023-03-21T20:49:49.506Z,157761.00
2023-03-21T20:55:10.027Z,157766.31
2023-03-21T20:57:39.124Z,157733.09
2023-03-21T21:00:18.785Z,157721.09
2023-03-21T21:02:50.793Z,157686.56
2023-03-21T21:05:32.892Z,157677.28
2023-03-21T21:08:03.861Z,157656.03
2023-03-21T21:10:33.674Z,157648.06
2023-03-21T21:13:02.022Z,157609.50
2023-03-21T21:15:30.227Z,157563.06
2023-03-21T21:18:08.054Z,157547.13
2023-03-21T21:20:38.776Z,157533.84
2023-03-21T21:23:07.030Z,157523.22
2023-03-21T21:25:35.565Z,157503.28
2023-03-21T21:28:09.275Z,157494.00
2023-03-21T21:30:41.900Z,157475.41
2023-03-21T21:33:10.236Z,157435.59
2023-03-21T21:35:38.890Z,157399.75
2023-03-21T21:38:08.642Z,157393.13
2023-03-21T21:40:38.532Z,157350.66
2023-03-21T21:43:06.883Z,157351.97
2023-03-21T21:45:37.675Z,157332.06
2023-03-21T21:48:07.109Z,157304.19
2023-03-21T21:50:36.932Z,157294.91
2023-03-21T21:53:06.530Z,157280.31
2023-03-21T21:55:34.984Z,157263.03
2023-03-21T21:58:04.621Z,157244.44
2023-03-21T22:00:33.264Z,157239.19
2023-03-21T22:03:02.365Z,157225.91
2023-03-21T22:05:31.071Z,157212.63
2023-03-21T22:07:58.783Z,157194.03
2023-03-21T22:10:27.915Z,157187.41
2023-03-21T22:12:55.988Z,157178.13
2023-03-21T22:15:24.653Z,157147.66
2023-03-21T22:17:52.937Z,157135.69
2023-03-21T22:20:22.216Z,157130.38
2023-03-21T22:22:50.400Z,157125.06
2023-03-21T22:25:18.967Z,157099.91
2023-03-21T22:27:47.698Z,157083.94
2023-03-21T22:30:18.166Z,157073.34
2023-03-21T22:32:56.428Z,157057.47
2023-03-21T22:35:27.818Z,157053.47
2023-03-21T22:37:55.707Z,157037.56
2023-03-21T22:40:24.752Z,157021.66
2023-03-21T22:42:52.600Z,157004.41
2023-03-21T22:45:21.240Z,156985.81
2023-03-21T22:47:49.281Z,156987.19
2023-03-21T22:50:18.130Z,156979.19
2023-03-21T22:52:46.497Z,156971.25
2023-03-21T22:55:14.669Z,156936.78
2023-03-21T22:57:42.365Z,156942.09
2023-03-21T23:00:13.866Z,156931.50
2023-03-21T23:02:42.824Z,156922.19
2023-03-21T23:05:11.204Z,156912.94
2023-03-21T23:07:40.309Z,156900.97
2023-03-21T23:10:09.122Z,156890.41
2023-03-21T23:12:37.848Z,156882.47
2023-03-21T23:15:07.902Z,156873.16
2023-03-21T23:17:35.973Z,156848.00
2023-03-21T23:20:08.804Z,156853.25
2023-03-21T23:22:37.201Z,156841.38
2023-03-21T23:25:06.828Z,156834.75
2023-03-21T23:27:35.637Z,156820.16
2023-03-21T23:30:07.302Z,156812.22
2023-03-21T23:32:35.796Z,156794.97
2023-03-21T23:35:04.485Z,156780.41
2023-03-21T23:37:32.292Z,156772.47
2023-03-21T23:40:00.582Z,156768.47
2023-03-21T23:42:29.439Z,156753.88
2023-03-21T23:44:57.467Z,156756.56
2023-03-21T23:47:25.698Z,156751.25
2023-03-21T23:49:53.613Z,156745.94
2023-03-21T23:52:21.849Z,156743.31
2023-03-21T23:54:50.074Z,156731.38
2023-03-21T23:57:18.350Z,156706.19
2023-03-21T23:59:47.212Z,156706.19
